createdAt,value
2023-04-01T00:02:29.395Z,99029.19
2023-04-01T00:05:44.298Z,99019.09
2023-04-01T00:08:46.658Z,99016.91
2023-04-01T00:12:01.317Z,99016.25
2023-04-01T00:15:05.134Z,99019.56
2023-04-01T00:18:20.300Z,99012.63
2023-04-01T00:21:29.190Z,99016.56
2023-04-01T00:24:45.328Z,99019.06
2023-04-01T00:27:53.855Z,99012.47
2023-04-01T00:31:16.360Z,99014.84
2023-04-01T00:34:24.350Z,99013.09
2023-04-01T00:37:36.878Z,99017.50
2023-04-01T00:40:53.314Z,99001.28
2023-04-01T00:44:23.306Z,99003.63
2023-04-01T00:47:32.034Z,99008.22
2023-04-01T00:51:02.323Z,98995.94
2023-04-01T00:54:12.303Z,98995.13
2023-04-01T00:57:37.330Z,98977.31
2023-04-01T01:00:49.228Z,98992.59
2023-04-01T01:04:04.316Z,98998.25
2023-04-01T01:07:54.331Z,98997.28
2023-04-01T01:11:03.324Z,98998.56
2023-04-01T01:14:43.324Z,98995.09
2023-04-01T01:18:20.312Z,99002.31
2023-04-01T01:21:28.217Z,98993.78
2023-04-01T01:24:58.331Z,98996.75
2023-04-01T01:28:34.311Z,98990.66
2023-04-01T01:31:59.295Z,98990.66
2023-04-01T01:35:36.336Z,98986.06
2023-04-01T01:38:46.913Z,98988.13
2023-04-01T01:41:56.319Z,98978.38
2023-04-01T01:45:08.154Z,98978.69
2023-04-01T01:48:18.342Z,98978.38
2023-04-01T01:51:40.331Z,98968.12
2023-04-01T01:55:04.317Z,98979.03
2023-04-01T01:58:21.354Z,98985.19
2023-04-01T02:01:34.062Z,98981.72
2023-04-01T02:04:48.435Z,98982.03
2023-04-01T02:08:09.314Z,98980.44
2023-04-01T02:11:24.710Z,98977.28
2023-04-01T02:14:46.311Z,98972.56
2023-04-01T02:17:55.849Z,98975.41
2023-04-01T02:21:06.348Z,98976.69
2023-04-01T02:24:15.976Z,98965.00
2023-04-01T02:27:24.343Z,98965.00
2023-04-01T02:30:36.124Z,98964.06
2023-04-01T02:33:53.360Z,98967.53
2023-04-01T02:37:09.344Z,98952.59
2023-04-01T02:40:22.331Z,98950.53
2023-04-01T02:43:37.324Z,98953.22
2023-04-01T02:46:52.403Z,98947.69
2023-04-01T02:49:54.338Z,98955.72
2023-04-01T02:53:09.341Z,98953.34
2023-04-01T02:56:17.337Z,98957.75
2023-04-01T02:59:33.326Z,98962.94
2023-04-01T03:02:48.428Z,98961.19
2023-04-01T03:06:03.347Z,98961.03
2023-04-01T03:09:05.273Z,98965.44
2023-04-01T03:12:20.347Z,98960.53
2023-04-01T03:15:35.374Z,98967.78
2023-04-01T03:18:50.348Z,98970.59
2023-04-01T03:21:59.263Z,98955.50
2023-04-01T03:25:08.320Z,98953.34
2023-04-01T03:28:48.048Z,98954.09
2023-04-01T03:31:56.331Z,98956.78
2023-04-01T03:35:05.444Z,98966.84
2023-04-01T03:38:13.328Z,98969.97
2023-04-01T03:41:28.314Z,98975.00
2023-04-01T03:44:37.477Z,98974.72
2023-04-01T03:47:52.365Z,98973.72
2023-04-01T03:51:00.338Z,98984.44
2023-04-01T03:54:10.052Z,98997.34
2023-04-01T03:57:18.332Z,98982.06
2023-04-01T04:00:27.099Z,99001.59
2023-04-01T04:03:35.554Z,98999.88
2023-04-01T04:06:50.330Z,98986.00
2023-04-01T04:10:05.337Z,98992.78
2023-04-01T04:13:20.311Z,98997.03
2023-04-01T04:16:29.016Z,98997.34
2023-04-01T04:19:40.316Z,98997.97
2023-04-01T04:22:48.907Z,98997.00
2023-04-01T04:26:29.353Z,98990.22
2023-04-01T04:29:31.466Z,98987.22
2023-04-01T04:32:46.362Z,98970.38
2023-04-01T04:35:54.398Z,98989.59
2023-04-01T04:39:02.956Z,98989.59
2023-04-01T04:42:18.338Z,98984.06
2023-04-01T04:45:26.928Z,98982.81
2023-04-01T04:48:41.328Z,98972.75
2023-04-01T04:51:56.580Z,98974.44
2023-04-01T04:55:12.346Z,98978.03
2023-04-01T04:58:20.319Z,98976.16
2023-04-01T05:01:29.618Z,98979.94
2023-04-01T05:04:42.315Z,98982.78
2023-04-01T05:07:50.868Z,98976.75
2023-04-01T05:11:05.313Z,98985.59
2023-04-01T05:14:13.350Z,98977.47
2023-04-01T05:17:28.373Z,98979.03
2023-04-01T05:20:43.343Z,98982.19
2023-04-01T05:23:52.328Z,98985.22
2023-04-01T05:27:07.369Z,98985.69
2023-04-01T05:30:09.716Z,98981.28
2023-04-01T05:33:24.354Z,99001.03
2023-04-01T05:36:39.301Z,98994.75
2023-04-01T05:39:41.399Z,99001.56
2023-04-01T05:42:57.325Z,98996.97
2023-04-01T05:46:13.352Z,98996.06
2023-04-01T05:49:22.326Z,98984.88
2023-04-01T05:52:45.333Z,98992.63
2023-04-01T05:55:47.270Z,98988.88
2023-04-01T05:59:02.359Z,98985.56
2023-04-01T06:02:04.503Z,98990.28
2023-04-01T06:05:25.346Z,99002.25
2023-04-01T06:13:14.365Z,98997.47
2023-04-01T06:16:45.791Z,99000.13
2023-04-01T06:20:28.366Z,98988.91
2023-04-01T06:24:06.376Z,98991.41
2023-04-01T06:27:23.927Z,98986.19
2023-04-01T06:31:00.383Z,98982.75
2023-04-01T06:34:27.655Z,98990.78
2023-04-01T06:37:58.366Z,98991.84
2023-04-01T06:41:43.352Z,99001.28
2023-04-01T06:45:20.639Z,99000.00
2023-04-01T06:48:57.383Z,99001.38
2023-04-01T06:52:09.370Z,99015.56
2023-04-01T06:55:36.756Z,99009.16
2023-04-01T06:58:52.375Z,99013.31
2023-04-01T07:02:20.347Z,99015.75
2023-04-01T07:05:33.675Z,99016.09
2023-04-01T07:08:48.335Z,99011.94
2023-04-01T07:12:10.366Z,98989.09
2023-04-01T07:15:29.361Z,99001.81
2023-04-01T07:19:05.372Z,99004.31
2023-04-01T07:22:32.358Z,99010.97
2023-04-01T07:25:47.384Z,99004.50
2023-04-01T07:29:02.353Z,99009.19
2023-04-01T07:32:52.894Z,99005.78
2023-04-01T07:36:32.564Z,99002.00
2023-04-01T07:40:30.370Z,99006.16
2023-04-01T07:43:41.630Z,99012.69
2023-04-01T07:47:16.388Z,99006.31
2023-04-01T07:51:05.336Z,98996.44
2023-04-01T07:54:46.347Z,99008.44
2023-04-01T07:58:11.425Z,99009.69
2023-04-01T08:01:45.386Z,99009.66
2023-04-01T08:05:22.253Z,99012.25
2023-04-01T08:08:51.412Z,99016.06
2023-04-01T08:12:44.390Z,99000.09
2023-04-01T08:16:07.088Z,99020.38
2023-04-01T08:19:56.362Z,99022.91
2023-04-01T08:23:23.410Z,99024.72
2023-04-01T08:26:39.990Z,99026.69
2023-04-01T08:30:10.384Z,99020.44
2023-04-01T08:33:27.630Z,99034.28
2023-04-01T08:36:47.376Z,99024.28
2023-04-01T08:40:00.359Z,99028.53
2023-04-01T08:43:36.368Z,99018.72
2023-04-01T08:47:22.392Z,99034.75
2023-04-01T08:50:52.395Z,99017.44
2023-04-01T08:54:51.388Z,99026.94
2023-04-01T08:57:59.404Z,99028.84
2023-04-01T09:01:48.394Z,99027.63
2023-04-01T09:05:34.674Z,99017.75
2023-04-01T09:09:30.668Z,99015.97
2023-04-01T09:13:04.377Z,99027.56
2023-04-01T09:16:50.370Z,99034.75
2023-04-01T09:20:23.446Z,99022.53
2023-04-01T09:24:16.410Z,99014.31
2023-04-01T09:28:07.394Z,99016.56
2023-04-01T09:31:44.455Z,99015.75
2023-04-01T09:35:21.639Z,99017.00
2023-04-01T09:39:05.380Z,99019.31
2023-04-01T09:42:20.395Z,99018.06
2023-04-01T09:45:57.380Z,99015.75
2023-04-01T09:49:34.400Z,99020.00
2023-04-01T09:53:24.878Z,99014.38
2023-04-01T09:56:51.418Z,99018.44
2023-04-01T10:00:31.391Z,99027.41
2023-04-01T10:04:06.155Z,99028.28
2023-04-01T10:07:52.391Z,99034.13
2023-04-01T10:11:03.944Z,99036.25
2023-04-01T10:14:39.382Z,99029.84
2023-04-01T10:18:27.406Z,99033.69
2023-04-01T10:21:55.369Z,99039.94
2023-04-01T10:25:32.641Z,99035.47
2023-04-01T10:28:59.432Z,99038.38
2023-04-01T10:32:20.239Z,99036.91
2023-04-01T10:35:28.398Z,99034.59
2023-04-01T10:38:54.397Z,99037.28
2023-04-01T10:42:25.396Z,99032.22
2023-04-01T10:46:00.451Z,99035.69
2023-04-01T10:49:43.370Z,99036.72
2023-04-01T10:53:08.478Z,99028.72
2023-04-01T10:56:37.392Z,99016.28
2023-04-01T11:00:14.435Z,99030.63
2023-04-01T11:03:54.499Z,99036.88
2023-04-01T11:07:05.667Z,99030.12
2023-04-01T11:10:32.382Z,99029.38
2023-04-01T11:13:50.370Z,99024.87
2023-04-01T11:17:11.397Z,99026.47
2023-04-01T11:20:47.420Z,99004.38
2023-04-01T11:24:19.835Z,99014.47
2023-04-01T11:27:56.385Z,99011.97
2023-04-01T11:31:27.105Z,99016.53
2023-04-01T11:35:04.402Z,99011.44
2023-04-01T11:38:21.444Z,99016.59
2023-04-01T11:41:46.440Z,99013.34
2023-04-01T11:45:19.411Z,99018.97
2023-04-01T11:49:07.371Z,99032.97
2023-04-01T11:52:41.402Z,99028.62
2023-04-01T11:56:24.318Z,99032.00
2023-04-01T12:00:09.401Z,99040.41
2023-04-01T12:03:55.623Z,99043.56
2023-04-01T12:07:24.300Z,99034.81
2023-04-01T12:10:40.386Z,99034.44
2023-04-01T12:14:21.373Z,99041.28
2023-04-01T12:17:37.657Z,99034.13
2023-04-01T12:20:55.428Z,99034.13
2023-04-01T12:24:12.144Z,99030.53
2023-04-01T12:27:36.440Z,99031.00
2023-04-01T12:30:49.947Z,99028.91
2023-04-01T12:34:04.389Z,99037.62
2023-04-01T12:37:38.415Z,99026.37
2023-04-01T12:40:58.424Z,99034.25
2023-04-01T12:44:31.440Z,99034.06
2023-04-01T12:47:46.408Z,99034.09
2023-04-01T12:51:23.425Z,99033.47
2023-04-01T12:55:14.422Z,99031.94
2023-04-01T12:58:48.426Z,99016.00
2023-04-01T13:02:03.538Z,99027.06
2023-04-01T13:05:39.410Z,99029.25
2023-04-01T13:09:06.832Z,99018.50
2023-04-01T13:12:39.519Z,99021.81
2023-04-01T13:15:56.667Z,99005.72
2023-04-01T13:19:20.401Z,99016.78
2023-04-01T13:22:46.168Z,99011.63
2023-04-01T13:26:19.517Z,99018.91
2023-04-01T13:29:44.781Z,99009.25
2023-04-01T13:33:17.560Z,99020.97
2023-04-01T13:36:32.262Z,99013.97
2023-04-01T13:40:12.422Z,99019.69
2023-04-01T13:44:07.591Z,99016.78
2023-04-01T13:47:54.496Z,99016.31
2023-04-01T13:51:24.401Z,99003.72
2023-04-01T13:55:19.417Z,99014.56
2023-04-01T13:58:59.809Z,99030.53
2023-04-01T14:02:32.474Z,99023.44
2023-04-01T14:05:56.398Z,99030.34
2023-04-01T14:09:24.489Z,99030.44
2023-04-01T14:12:44.896Z,99029.19
2023-04-01T14:15:53.473Z,99041.78
2023-04-01T14:19:26.046Z,99044.19
2023-04-01T14:22:50.438Z,99029.72
2023-04-01T14:26:30.454Z,99031.28
2023-04-01T14:29:55.598Z,99032.19
2023-04-01T14:33:35.442Z,99035.34
2023-04-01T14:37:11.753Z,99034.63
2023-04-01T14:40:53.424Z,99026.53
2023-04-01T14:44:26.435Z,99029.38
2023-04-01T14:52:00.444Z,99033.31
2023-04-01T14:55:37.609Z,99032.31
2023-04-01T14:58:44.352Z,99023.78
2023-04-01T15:02:26.573Z,99015.28
2023-04-01T15:05:57.656Z,99021.28
2023-04-01T15:09:23.737Z,99023.03
2023-04-01T15:12:50.492Z,99027.19
2023-04-01T15:16:33.546Z,99010.09
2023-04-01T15:20:03.573Z,99022.91
2023-04-01T15:23:23.440Z,99025.56
2023-04-01T15:27:06.457Z,99025.87
2023-04-01T15:30:36.097Z,99034.94
2023-04-01T15:33:59.480Z,99032.84
2023-04-01T15:37:08.007Z,99035.94
2023-04-01T15:40:36.690Z,99040.31
2023-04-01T15:43:54.420Z,99045.81
2023-04-01T15:47:26.175Z,99037.94
2023-04-01T15:51:03.519Z,99041.19
2023-04-01T15:54:35.459Z,99042.53
2023-04-01T15:57:49.833Z,99043.88
2023-04-01T16:01:12.596Z,99050.19
2023-04-01T16:04:41.517Z,99040.06
2023-04-01T16:08:27.768Z,99051.16
2023-04-01T16:11:57.466Z,99042.19
2023-04-01T16:15:21.565Z,99049.34
2023-04-01T16:19:04.670Z,99057.19
2023-04-01T16:22:27.425Z,99060.91
2023-04-01T16:26:28.157Z,99063.06
2023-04-01T16:30:08.458Z,99076.44
2023-04-01T16:33:47.248Z,99068.94
2023-04-01T16:37:18.795Z,99067.72
2023-04-01T16:40:43.422Z,99063.03
2023-04-01T16:43:58.702Z,99080.53
2023-04-01T16:47:19.567Z,99081.69
2023-04-01T16:50:35.697Z,99083.56
2023-04-01T16:54:06.840Z,99076.50
2023-04-01T16:57:30.895Z,99081.34
2023-04-01T17:00:55.934Z,99086.19
2023-04-01T17:04:48.485Z,99084.06
2023-04-01T17:08:36.860Z,99088.91
2023-04-01T17:12:16.782Z,99094.41
2023-04-01T17:15:52.757Z,99092.72
2023-04-01T17:19:10.694Z,99098.31
2023-04-01T17:22:37.473Z,99090.56
2023-04-01T17:26:14.914Z,99101.91
2023-04-01T17:30:02.762Z,99091.00
2023-04-01T17:33:26.539Z,99095.06
2023-04-01T17:37:06.828Z,99110.31
2023-04-01T17:40:37.448Z,99109.75
2023-04-01T17:44:10.751Z,99116.94
2023-04-01T17:47:35.925Z,99112.19
2023-04-01T17:51:14.878Z,99117.13
2023-04-01T17:54:43.976Z,99122.38
2023-04-01T17:58:14.462Z,99123.72
2023-04-01T18:02:00.938Z,99126.63
2023-04-01T18:05:51.888Z,99134.59
2023-04-01T18:09:28.784Z,99137.16
2023-04-01T18:12:59.938Z,99143.53
2023-04-01T18:16:37.936Z,99148.66
2023-04-01T18:20:37.203Z,99148.44
2023-04-01T18:24:13.992Z,99158.94
2023-04-01T18:27:45.867Z,99161.38
2023-04-01T18:31:13.969Z,99169.28
2023-04-01T18:34:54.965Z,99176.13
2023-04-01T18:38:39.866Z,99169.50
2023-04-01T18:42:01.356Z,99180.91
2023-04-01T18:45:38.775Z,99180.31
2023-04-01T18:48:48.769Z,99193.63
2023-04-01T18:52:26.916Z,99193.03
2023-04-01T18:55:51.767Z,99192.91
2023-04-01T18:59:08.972Z,99196.56
2023-04-01T19:02:49.085Z,99194.06
2023-04-01T19:06:09.940Z,99187.47
2023-04-01T19:09:38.514Z,99198.69
2023-04-01T19:13:08.977Z,99198.22
2023-04-01T19:16:39.903Z,99199.66
2023-04-01T19:20:04.437Z,99199.50
2023-04-01T19:24:06.467Z,99197.03
2023-04-01T19:27:40.970Z,99194.53
2023-04-01T19:31:06.865Z,99200.87
2023-04-01T19:34:30.955Z,99203.75
2023-04-01T19:37:58.472Z,99201.69
2023-04-01T19:41:29.259Z,99208.53
2023-04-01T19:44:55.683Z,99207.28
2023-04-01T19:48:44.828Z,99220.22
2023-04-01T19:52:19.010Z,99217.38
2023-04-01T19:55:51.769Z,99224.34
2023-04-01T19:59:31.489Z,99227.66
2023-04-01T20:03:03.711Z,99223.41
2023-04-01T20:06:22.208Z,99224.97
2023-04-01T20:09:53.527Z,99223.72
2023-04-01T20:13:08.502Z,99225.50
2023-04-01T20:16:22.093Z,99224.22
2023-04-01T20:19:53.513Z,99228.22
2023-04-01T20:23:42.898Z,99226.47
2023-04-01T20:27:11.529Z,99222.72
2023-04-01T20:30:44.477Z,99231.87
2023-04-01T20:34:37.212Z,99223.84
2023-04-01T20:38:17.552Z,99226.25
2023-04-01T20:42:06.926Z,99224.34
2023-04-01T20:45:36.774Z,99231.78
2023-04-01T20:48:53.466Z,99234.75
2023-04-01T20:52:20.883Z,99237.75
2023-04-01T20:55:48.068Z,99240.72
2023-04-01T20:59:18.925Z,99244.34
2023-04-01T21:02:45.798Z,99249.03
2023-04-01T21:06:06.549Z,99255.31
2023-04-01T21:09:32.756Z,99265.06
2023-04-01T21:12:54.632Z,99256.84
2023-04-01T21:16:26.749Z,99260.34
2023-04-01T21:19:57.741Z,99262.72
2023-04-01T21:23:46.488Z,99262.88
2023-04-01T21:27:19.480Z,99260.94
2023-04-01T21:30:47.514Z,99263.09
2023-04-01T21:34:30.486Z,99265.91
2023-04-01T21:37:58.158Z,99269.16
2023-04-01T21:41:23.484Z,99275.63
2023-04-01T21:44:43.336Z,99279.66
2023-04-01T21:48:31.467Z,99283.06
2023-04-01T21:51:46.489Z,99282.22
2023-04-01T21:55:36.709Z,99278.06
2023-04-01T21:59:16.496Z,99280.56
2023-04-01T22:02:33.587Z,99281.16
2023-04-01T22:06:00.492Z,99275.34
2023-04-01T22:09:39.492Z,99280.19
2023-04-01T22:13:07.488Z,99280.22
2023-04-01T22:16:44.518Z,99276.16
2023-04-01T22:20:33.556Z,99293.25
2023-04-01T22:23:54.505Z,99287.69
2023-04-01T22:27:34.479Z,99293.72
2023-04-01T22:30:57.503Z,99294.19
2023-04-01T22:34:23.305Z,99292.31
2023-04-01T22:37:48.515Z,99294.19
2023-04-01T22:40:59.998Z,99296.72
2023-04-01T22:44:08.502Z,99302.38
2023-04-01T22:47:47.611Z,99302.69
2023-04-01T22:50:49.541Z,99312.16
2023-04-01T22:54:36.548Z,99322.72
2023-04-01T22:57:48.499Z,99326.47
2023-04-01T23:01:05.506Z,99322.25
2023-04-01T23:04:19.511Z,99329.47
2023-04-01T23:07:46.498Z,99324.13
2023-04-01T23:10:57.180Z,99330.56
2023-04-01T23:14:27.515Z,99336.41
2023-04-01T23:17:50.520Z,99330.28
2023-04-01T23:21:20.496Z,99337.03
2023-04-01T23:24:45.495Z,99333.09
2023-04-01T23:28:53.510Z,99342.53
2023-04-01T23:32:04.904Z,99334.78
2023-04-01T23:35:24.497Z,99338.91
2023-04-01T23:38:34.489Z,99340.59
2023-04-01T23:41:49.510Z,99338.56
2023-04-01T23:45:01.472Z,99342.31
2023-04-01T23:48:22.490Z,99345.31
2023-04-01T23:51:38.626Z,99351.59
2023-04-01T23:55:05.515Z,99364.81
2023-04-01T23:58:23.952Z,99368.06
